createdAt,value
2018-11-12T00:00:07.172Z,14.08
2018-11-12T00:00:42.386Z,13.98
2018-11-12T00:01:17.346Z,14.02
2018-11-12T00:01:52.370Z,14.01
2018-11-12T00:02:27.432Z,13.96
2018-11-12T00:03:02.571Z,13.99
2018-11-12T00:03:37.478Z,14.01
2018-11-12T00:04:12.539Z,13.98
2018-11-12T00:04:47.531Z,13.90
2018-11-12T00:05:22.760Z,13.94
2018-11-12T00:05:57.750Z,13.96
2018-11-12T00:06:32.901Z,13.98
2018-11-12T00:07:07.863Z,13.95
2018-11-12T00:07:43.225Z,13.92
2018-11-12T00:08:18.208Z,14.02
2018-11-12T00:08:53.173Z,13.92
2018-11-12T00:09:28.167Z,13.86
2018-11-12T00:10:03.293Z,14.00
2018-11-12T00:10:38.232Z,14.01
2018-11-12T00:11:13.191Z,14.10
2018-11-12T00:11:48.293Z,14.18
2018-11-12T00:12:23.249Z,14.15
2018-11-12T00:12:58.238Z,14.22
2018-11-12T00:13:33.132Z,14.17
2018-11-12T00:14:09.043Z,14.15
2018-11-12T00:14:44.304Z,14.11
2018-11-12T00:15:19.700Z,14.06
2018-11-12T00:15:54.664Z,14.05
2018-11-12T00:16:29.628Z,14.01
2018-11-12T00:17:05.651Z,14.00
2018-11-12T00:17:40.926Z,14.00
2018-11-12T00:18:16.186Z,13.97
2018-11-12T00:18:51.183Z,13.97
2018-11-12T00:19:26.143Z,14.00
2018-11-12T00:20:01.133Z,13.98
2018-11-12T00:20:36.102Z,14.09
2018-11-12T00:21:11.053Z,14.08
2018-11-12T00:21:46.588Z,14.07
2018-11-12T00:22:21.840Z,13.99
2018-11-12T00:22:56.760Z,14.00
2018-11-12T00:23:31.722Z,13.96
2018-11-12T00:24:07.423Z,13.97
2018-11-12T00:24:42.389Z,13.95
2018-11-12T00:25:17.791Z,13.93
2018-11-12T00:25:52.760Z,14.00
2018-11-12T00:26:28.391Z,14.10
2018-11-12T00:27:03.262Z,14.05
2018-11-12T00:27:38.824Z,14.03
2018-11-12T00:28:14.050Z,14.03
2018-11-12T00:28:49.028Z,13.94
2018-11-12T00:29:24.023Z,13.93
2018-11-12T00:29:58.963Z,13.90
2018-11-12T00:30:33.916Z,13.89
2018-11-12T00:31:08.889Z,14.00
2018-11-12T00:31:44.390Z,13.99
2018-11-12T00:32:19.394Z,14.04
2018-11-12T00:32:54.309Z,13.95
2018-11-12T00:33:29.687Z,13.94
2018-11-12T00:34:04.638Z,13.93
2018-11-12T00:34:39.881Z,13.89
2018-11-12T00:35:14.898Z,13.98
2018-11-12T00:35:49.587Z,13.97
2018-11-12T00:36:24.695Z,13.98
2018-11-12T00:36:59.656Z,14.01
2018-11-12T00:37:34.621Z,13.98
2018-11-12T00:38:09.640Z,13.95
2018-11-12T00:38:44.814Z,13.98
2018-11-12T00:39:19.949Z,13.94
2018-11-12T00:39:54.889Z,14.00
2018-11-12T00:40:29.856Z,14.06
2018-11-12T00:41:04.820Z,14.04
2018-11-12T00:41:40.221Z,13.98
2018-11-12T00:42:15.252Z,13.95
2018-11-12T00:42:50.281Z,13.94
2018-11-12T00:43:25.269Z,13.97
2018-11-12T00:44:00.188Z,14.06
2018-11-12T00:44:35.201Z,14.14
2018-11-12T00:45:11.380Z,14.09
2018-11-12T00:45:46.402Z,14.07
2018-11-12T00:46:21.455Z,14.01
2018-11-12T00:46:56.413Z,13.93
2018-11-12T00:47:31.512Z,14.04
2018-11-12T00:48:06.790Z,14.03
2018-11-12T00:48:42.343Z,14.11
2018-11-12T00:49:17.408Z,14.16
2018-11-12T00:49:52.341Z,14.09
2018-11-12T00:50:27.310Z,14.08
2018-11-12T00:51:02.303Z,14.04
2018-11-12T00:51:37.277Z,13.97
2018-11-12T00:52:12.284Z,13.91
2018-11-12T00:52:47.304Z,14.00
2018-11-12T00:53:22.245Z,13.97
2018-11-12T00:53:57.764Z,14.04
2018-11-12T00:54:32.699Z,14.11
2018-11-12T00:55:09.125Z,14.07
2018-11-12T00:55:44.278Z,14.00
2018-11-12T00:56:19.339Z,14.00
2018-11-12T00:56:54.308Z,13.97
2018-11-12T00:57:29.281Z,13.95
2018-11-12T00:58:04.588Z,13.91
2018-11-12T00:58:39.594Z,13.87
2018-11-12T00:59:14.614Z,13.86
2018-11-12T00:59:49.732Z,13.91
2018-11-12T01:00:24.672Z,13.88
2018-11-12T01:00:59.614Z,14.10
2018-11-12T01:01:34.508Z,14.01
2018-11-12T01:02:09.508Z,13.92
2018-11-12T01:02:45.900Z,13.87
2018-11-12T01:03:20.890Z,13.85
2018-11-12T01:03:55.915Z,13.86
2018-11-12T01:04:30.932Z,14.01
2018-11-12T01:05:07.252Z,13.97
2018-11-12T01:05:42.470Z,14.06
2018-11-12T01:06:17.466Z,13.98
2018-11-12T01:06:52.468Z,13.97
2018-11-12T01:07:27.490Z,13.95
2018-11-12T01:08:02.421Z,13.97
2018-11-12T01:08:37.460Z,13.98
2018-11-12T01:09:13.154Z,14.01
2018-11-12T01:09:48.205Z,13.97
2018-11-12T01:10:23.184Z,13.91
2018-11-12T01:10:58.142Z,13.81
2018-11-12T01:11:33.167Z,13.81
2018-11-12T01:12:08.119Z,13.78
2018-11-12T01:12:43.793Z,13.76
2018-11-12T01:13:19.146Z,13.93
2018-11-12T01:13:54.143Z,13.96
2018-11-12T01:14:29.088Z,13.91
2018-11-12T01:15:04.899Z,13.87
2018-11-12T01:15:39.806Z,13.99
2018-11-12T01:16:15.093Z,13.97
2018-11-12T01:16:50.365Z,13.92
2018-11-12T01:17:25.284Z,13.85
2018-11-12T01:18:00.203Z,13.84
2018-11-12T01:18:35.296Z,13.79
2018-11-12T01:19:10.280Z,13.83
2018-11-12T01:19:45.275Z,13.84
2018-11-12T01:20:20.290Z,13.81
2018-11-12T01:20:55.302Z,13.87
2018-11-12T01:21:30.224Z,13.80
2018-11-12T01:22:05.280Z,13.78
2018-11-12T01:22:40.220Z,13.74
2018-11-12T01:23:15.312Z,13.67
2018-11-12T01:23:50.318Z,13.68
2018-11-12T01:24:25.298Z,13.67
2018-11-12T01:25:00.215Z,13.64
2018-11-12T01:25:35.268Z,13.60
2018-11-12T01:26:10.381Z,13.64
2018-11-12T01:26:45.355Z,13.60
2018-11-12T01:27:20.376Z,13.58
2018-11-12T01:27:55.377Z,13.57
2018-11-12T01:28:30.291Z,13.55
2018-11-12T01:29:05.842Z,13.53
2018-11-12T01:29:40.768Z,13.49
2018-11-12T01:30:17.309Z,13.47
2018-11-12T01:30:55.105Z,13.49
2018-11-12T01:31:30.021Z,13.51
2018-11-12T01:32:05.234Z,13.57
2018-11-12T01:32:40.606Z,13.55
2018-11-12T01:33:15.748Z,13.55
2018-11-12T01:33:51.012Z,13.55
2018-11-12T01:34:26.036Z,13.51
2018-11-12T01:35:00.976Z,13.55
2018-11-12T01:35:35.919Z,13.51
2018-11-12T01:36:10.884Z,13.47
2018-11-12T01:36:45.876Z,13.46
2018-11-12T01:37:20.855Z,13.45
2018-11-12T01:37:55.800Z,13.43
2018-11-12T01:38:30.724Z,13.43
2018-11-12T01:39:08.956Z,13.38
2018-11-12T01:39:44.190Z,13.38
2018-11-12T01:40:19.239Z,13.39
2018-11-12T01:40:54.209Z,13.37
2018-11-12T01:41:29.104Z,13.39
2018-11-12T01:42:04.814Z,13.37
2018-11-12T01:42:39.932Z,13.38
2018-11-12T01:43:15.335Z,13.37
2018-11-12T01:43:50.399Z,13.38
2018-11-12T01:44:25.366Z,13.36
2018-11-12T01:45:00.285Z,13.37
2018-11-12T01:45:35.280Z,13.39
2018-11-12T01:46:10.197Z,13.38
2018-11-12T01:46:45.764Z,13.42
2018-11-12T01:47:20.779Z,13.44
2018-11-12T01:47:55.950Z,13.45
2018-11-12T01:48:30.895Z,13.42
2018-11-12T01:49:06.197Z,13.67
2018-11-12T01:49:41.116Z,13.77
2018-11-12T01:50:17.124Z,13.75
2018-11-12T01:50:52.037Z,13.67
2018-11-12T01:51:26.975Z,13.64
2018-11-12T01:52:01.881Z,13.61
2018-11-12T01:52:36.809Z,13.60
2018-11-12T01:53:11.838Z,13.61
2018-11-12T01:53:47.112Z,13.65
2018-11-12T01:54:22.181Z,13.59
2018-11-12T01:54:57.115Z,13.58
2018-11-12T01:55:32.044Z,13.52
2018-11-12T01:56:07.908Z,13.52
2018-11-12T01:56:42.965Z,13.48
2018-11-12T01:57:17.965Z,13.47
2018-11-12T01:57:52.371Z,13.47
2018-11-12T01:58:27.499Z,13.44
2018-11-12T01:59:02.415Z,13.48
2018-11-12T01:59:37.456Z,13.44
2018-11-12T02:00:16.025Z,13.42
2018-11-12T02:00:50.994Z,13.42
2018-11-12T02:01:26.174Z,13.39
2018-11-12T02:02:01.261Z,13.38
2018-11-12T02:02:36.248Z,13.37
2018-11-12T02:03:11.369Z,13.40
2018-11-12T02:03:46.530Z,13.40
2018-11-12T02:04:21.617Z,13.36
2018-11-12T02:04:56.562Z,13.39
2018-11-12T02:05:31.768Z,13.33
2018-11-12T02:06:07.025Z,13.33
2018-11-12T02:06:42.045Z,13.35
2018-11-12T02:07:17.127Z,13.34
2018-11-12T02:07:52.273Z,13.35
2018-11-12T02:08:27.211Z,13.36
2018-11-12T02:09:02.246Z,13.33
2018-11-12T02:09:37.273Z,13.29
2018-11-12T02:10:13.636Z,13.28
2018-11-12T02:10:49.101Z,13.29
2018-11-12T02:11:24.036Z,13.27
2018-11-12T02:11:58.957Z,13.29
2018-11-12T02:12:33.901Z,13.26
2018-11-12T02:13:08.787Z,13.26
2018-11-12T02:13:44.130Z,13.26
2018-11-12T02:14:19.166Z,13.26
2018-11-12T02:14:54.229Z,13.24
2018-11-12T02:15:29.139Z,13.25
2018-11-12T02:16:04.428Z,13.39
2018-11-12T02:16:39.524Z,13.40
2018-11-12T02:17:14.761Z,13.41
2018-11-12T02:17:50.497Z,13.35
2018-11-12T02:18:25.520Z,13.34
2018-11-12T02:19:00.461Z,13.29
2018-11-12T02:19:35.390Z,13.25
2018-11-12T02:20:12.263Z,13.21
2018-11-12T02:20:47.347Z,13.18
2018-11-12T02:21:22.372Z,13.16
2018-11-12T02:21:57.338Z,13.17
2018-11-12T02:22:32.485Z,13.11
2018-11-12T02:23:07.637Z,13.09
2018-11-12T02:23:42.673Z,13.07
2018-11-12T02:24:18.086Z,13.04
2018-11-12T02:24:53.059Z,13.02
2018-11-12T02:25:27.988Z,12.98
2018-11-12T02:26:02.948Z,12.94
2018-11-12T02:26:37.903Z,12.96
2018-11-12T02:27:12.933Z,12.92
2018-11-12T02:27:48.069Z,12.92
2018-11-12T02:28:23.292Z,12.90
2018-11-12T02:28:58.567Z,12.92
2018-11-12T02:29:33.451Z,12.89
2018-11-12T02:30:13.154Z,12.87
2018-11-12T02:30:49.218Z,12.87
2018-11-12T02:31:24.258Z,12.89
2018-11-12T02:31:59.337Z,12.83
2018-11-12T02:32:34.242Z,12.82
2018-11-12T02:33:09.230Z,12.79
2018-11-12T02:33:44.434Z,12.80
2018-11-12T02:34:19.530Z,12.80
2018-11-12T02:34:54.756Z,12.78
2018-11-12T02:35:29.847Z,12.73
2018-11-12T02:36:05.780Z,12.73
2018-11-12T02:36:40.768Z,12.71
2018-11-12T02:37:15.993Z,12.68
2018-11-12T02:37:51.029Z,12.67
2018-11-12T02:38:26.055Z,12.65
2018-11-12T02:39:00.993Z,12.63
2018-11-12T02:39:35.901Z,12.60
2018-11-12T02:40:12.610Z,12.57
2018-11-12T02:40:47.593Z,12.59
2018-11-12T02:41:22.781Z,12.60
2018-11-12T02:41:57.691Z,12.58
2018-11-12T02:42:32.613Z,12.55
2018-11-12T02:43:07.876Z,12.52
2018-11-12T02:43:43.220Z,12.48
2018-11-12T02:44:18.325Z,12.47
2018-11-12T02:44:53.358Z,12.47
2018-11-12T02:45:28.289Z,12.44
2018-11-12T02:46:03.226Z,12.42
2018-11-12T02:46:38.453Z,12.41
2018-11-12T02:47:13.861Z,12.41
2018-11-12T02:47:49.356Z,12.40
2018-11-12T02:48:24.354Z,12.41
2018-11-12T02:48:59.435Z,12.37
2018-11-12T02:49:34.437Z,12.34
2018-11-12T02:50:11.058Z,12.33
2018-11-12T02:50:46.347Z,12.33
2018-11-12T02:51:21.427Z,12.31
2018-11-12T02:51:56.368Z,12.30
2018-11-12T02:52:31.415Z,12.26
2018-11-12T02:53:06.305Z,12.24
2018-11-12T02:53:41.656Z,12.28
2018-11-12T02:54:16.730Z,12.33
2018-11-12T02:54:51.921Z,12.33
2018-11-12T02:55:26.877Z,12.33
2018-11-12T02:56:01.935Z,12.33
2018-11-12T02:56:36.921Z,12.34
2018-11-12T02:57:12.048Z,12.36
2018-11-12T02:57:47.660Z,12.37
2018-11-12T02:58:22.782Z,12.41
2018-11-12T02:58:57.716Z,12.43
2018-11-12T02:59:32.732Z,12.46
2018-11-12T03:00:11.514Z,12.55
2018-11-12T03:00:46.615Z,12.56
2018-11-12T03:01:22.123Z,12.58
2018-11-12T03:01:57.077Z,12.59
2018-11-12T03:02:32.030Z,12.61
2018-11-12T03:03:07.096Z,12.62
2018-11-12T03:03:42.120Z,12.65
2018-11-12T03:04:17.275Z,12.67
2018-11-12T03:04:52.643Z,12.68
2018-11-12T03:05:27.688Z,12.71
2018-11-12T03:06:02.634Z,12.73
2018-11-12T03:06:37.573Z,12.73
2018-11-12T03:07:13.130Z,12.77
2018-11-12T03:07:48.227Z,12.81
2018-11-12T03:08:23.302Z,12.82
2018-11-12T03:08:58.246Z,12.82
2018-11-12T03:09:33.244Z,12.83
2018-11-12T03:10:14.799Z,12.85
2018-11-12T03:10:49.983Z,12.86
2018-11-12T03:11:24.567Z,12.88
2018-11-12T03:11:59.489Z,12.91
2018-11-12T03:12:34.416Z,12.92
2018-11-12T03:13:09.358Z,12.92
2018-11-12T03:13:44.861Z,12.96
2018-11-12T03:14:20.067Z,13.06
2018-11-12T03:14:55.245Z,13.03
2018-11-12T03:15:30.188Z,12.99
2018-11-12T03:16:06.114Z,12.97
2018-11-12T03:16:41.106Z,12.99
2018-11-12T03:17:16.288Z,12.97
2018-11-12T03:17:52.058Z,12.98
2018-11-12T03:18:26.955Z,12.98
2018-11-12T03:19:01.864Z,12.97
2018-11-12T03:19:36.812Z,12.98
2018-11-12T03:20:13.866Z,12.93
2018-11-12T03:20:48.955Z,12.91
2018-11-12T03:21:23.923Z,13.01
2018-11-12T03:21:58.876Z,13.01
2018-11-12T03:22:33.828Z,13.01
2018-11-12T03:23:08.834Z,12.97
2018-11-12T03:23:43.913Z,12.96
2018-11-12T03:24:19.235Z,12.94
2018-11-12T03:24:54.216Z,12.93
2018-11-12T03:25:29.136Z,12.91
2018-11-12T03:26:04.054Z,12.93
2018-11-12T03:26:38.973Z,12.93
2018-11-12T03:27:14.437Z,12.92
2018-11-12T03:27:50.114Z,12.90
2018-11-12T03:28:25.244Z,12.90
2018-11-12T03:29:00.180Z,12.94
2018-11-12T03:29:35.089Z,12.85
2018-11-12T03:30:12.668Z,12.92
2018-11-12T03:30:47.751Z,12.91
2018-11-12T03:31:22.762Z,13.03
2018-11-12T03:31:57.672Z,13.02
2018-11-12T03:32:32.576Z,13.00
2018-11-12T03:33:07.680Z,12.98
2018-11-12T03:33:42.764Z,12.97
2018-11-12T03:34:17.852Z,12.96
2018-11-12T03:34:52.932Z,12.95
2018-11-12T03:35:27.851Z,12.93
2018-11-12T03:36:02.762Z,12.93
2018-11-12T03:36:37.662Z,12.90
2018-11-12T03:37:12.644Z,12.91
2018-11-12T03:37:48.698Z,12.93
2018-11-12T03:38:23.664Z,12.94
2018-11-12T03:38:58.585Z,12.97
2018-11-12T03:39:33.585Z,12.97
2018-11-12T03:40:12.296Z,12.98
2018-11-12T03:40:47.570Z,12.99
2018-11-12T03:41:22.577Z,13.01
2018-11-12T03:41:57.515Z,13.08
2018-11-12T03:42:32.436Z,13.06
2018-11-12T03:43:07.318Z,13.07
2018-11-12T03:43:42.594Z,13.05
2018-11-12T03:44:17.615Z,13.05
2018-11-12T03:44:52.629Z,12.96
2018-11-12T03:45:27.744Z,13.05
2018-11-12T03:46:02.710Z,13.06
2018-11-12T03:46:37.661Z,13.05
2018-11-12T03:47:12.924Z,13.04
2018-11-12T03:47:48.015Z,13.06
2018-11-12T03:48:23.084Z,13.05
2018-11-12T03:48:58.017Z,13.08
2018-11-12T03:49:32.941Z,13.06
2018-11-12T03:50:12.104Z,13.12
2018-11-12T03:50:47.220Z,13.11
2018-11-12T03:51:22.201Z,13.10
2018-11-12T03:51:57.258Z,13.09
2018-11-12T03:52:32.157Z,13.13
2018-11-12T03:53:07.322Z,13.11
2018-11-12T03:53:42.321Z,13.13
2018-11-12T03:54:17.444Z,13.12
2018-11-12T03:54:52.548Z,13.14
2018-11-12T03:55:27.519Z,13.11
2018-11-12T03:56:02.879Z,13.13
2018-11-12T03:56:37.775Z,13.14
2018-11-12T03:57:13.029Z,13.07
2018-11-12T03:57:48.474Z,13.14
2018-11-12T03:58:23.529Z,13.15
2018-11-12T03:58:58.601Z,13.14
2018-11-12T03:59:33.603Z,13.14
2018-11-12T04:00:13.341Z,13.17
2018-11-12T04:00:48.944Z,13.15
2018-11-12T04:01:28.083Z,13.18
2018-11-12T04:02:03.005Z,13.20
2018-11-12T04:02:38.086Z,13.22
2018-11-12T04:03:13.722Z,13.21
2018-11-12T04:03:48.943Z,13.23
2018-11-12T04:04:24.038Z,13.22
2018-11-12T04:04:59.219Z,13.19
2018-11-12T04:05:34.689Z,13.21
2018-11-12T04:06:09.623Z,13.16
2018-11-12T04:06:45.925Z,13.22
2018-11-12T04:07:20.930Z,13.25
2018-11-12T04:07:56.522Z,13.26
2018-11-12T04:08:31.437Z,13.26
2018-11-12T04:09:09.863Z,13.26
2018-11-12T04:09:45.466Z,13.27
2018-11-12T04:10:21.213Z,13.38
2018-11-12T04:10:56.152Z,13.51
2018-11-12T04:11:31.067Z,13.48
2018-11-12T04:12:06.011Z,13.43
2018-11-12T04:12:41.191Z,13.40
2018-11-12T04:13:16.544Z,13.39
2018-11-12T04:13:51.671Z,13.31
2018-11-12T04:14:26.625Z,13.37
2018-11-12T04:15:01.588Z,13.37
2018-11-12T04:15:36.542Z,13.38
2018-11-12T04:16:11.721Z,13.37
2018-11-12T04:16:47.152Z,13.36
2018-11-12T04:17:22.998Z,13.34
2018-11-12T04:17:59.298Z,13.30
2018-11-12T04:18:34.413Z,13.31
2018-11-12T04:19:09.541Z,13.27
2018-11-12T04:19:44.923Z,13.26
2018-11-12T04:20:21.994Z,13.25
2018-11-12T04:20:56.975Z,13.24
2018-11-12T04:21:32.096Z,13.25
2018-11-12T04:22:07.105Z,13.23
2018-11-12T04:22:46.184Z,13.24
2018-11-12T04:23:21.429Z,13.22
2018-11-12T04:23:56.489Z,13.20
2018-11-12T04:24:31.488Z,13.21
2018-11-12T04:25:07.933Z,13.21
2018-11-12T04:25:43.176Z,13.19
2018-11-12T04:26:18.693Z,13.18
2018-11-12T04:26:53.705Z,13.22
2018-11-12T04:27:28.764Z,13.23
2018-11-12T04:28:03.840Z,13.21
2018-11-12T04:28:38.950Z,13.20
2018-11-12T04:29:14.414Z,13.22
2018-11-12T04:29:49.733Z,13.18
2018-11-12T04:30:24.823Z,13.23
2018-11-12T04:30:59.878Z,13.23
2018-11-12T04:31:34.856Z,13.22
2018-11-12T04:32:09.840Z,13.23
2018-11-12T04:32:46.241Z,13.17
2018-11-12T04:33:21.499Z,13.23
2018-11-12T04:33:56.824Z,13.23
2018-11-12T04:34:31.918Z,13.22
2018-11-12T04:35:07.805Z,13.23
2018-11-12T04:35:43.081Z,13.23
2018-11-12T04:36:18.363Z,13.24
2018-11-12T04:36:53.600Z,13.23
2018-11-12T04:37:28.560Z,13.23
2018-11-12T04:38:03.539Z,13.25
2018-11-12T04:38:38.563Z,13.23
2018-11-12T04:39:13.709Z,13.21
2018-11-12T04:39:48.917Z,13.19
2018-11-12T04:40:24.022Z,13.17
2018-11-12T04:40:58.981Z,13.18
2018-11-12T04:41:33.968Z,13.15
2018-11-12T04:42:08.899Z,13.16
2018-11-12T04:42:44.510Z,13.17
2018-11-12T04:43:19.627Z,13.16
2018-11-12T04:43:54.677Z,13.18
2018-11-12T04:44:29.716Z,13.15
2018-11-12T04:45:05.272Z,13.13
2018-11-12T04:45:40.540Z,13.14
2018-11-12T04:46:16.039Z,13.11
2018-11-12T04:46:51.344Z,13.11
2018-11-12T04:47:26.502Z,13.16
2018-11-12T04:48:01.606Z,13.14
2018-11-12T04:48:36.640Z,13.13
2018-11-12T04:49:11.612Z,13.10
2018-11-12T04:49:46.781Z,13.08
2018-11-12T04:50:23.637Z,13.11
2018-11-12T04:50:58.584Z,13.09
2018-11-12T04:51:33.525Z,13.11
2018-11-12T04:52:08.488Z,13.04
2018-11-12T04:52:43.759Z,13.12
2018-11-12T04:53:18.768Z,13.17
2018-11-12T04:53:54.277Z,13.19
2018-11-12T04:54:29.420Z,13.17
2018-11-12T04:55:04.679Z,13.17
2018-11-12T04:55:39.647Z,13.17
2018-11-12T04:56:15.102Z,13.17
2018-11-12T04:56:50.164Z,13.19
2018-11-12T04:57:25.160Z,13.18
2018-11-12T04:58:00.078Z,13.16
2018-11-12T04:58:35.005Z,13.15
2018-11-12T04:59:10.000Z,13.12
2018-11-12T04:59:45.365Z,13.13
2018-11-12T05:00:24.116Z,13.09
2018-11-12T05:00:59.114Z,13.11
2018-11-12T05:01:34.032Z,13.13
2018-11-12T05:02:09.199Z,13.14
2018-11-12T05:02:44.970Z,13.15
2018-11-12T05:03:20.183Z,13.18
2018-11-12T05:03:55.179Z,13.15
2018-11-12T05:04:30.095Z,13.15
2018-11-12T05:05:05.370Z,13.15
2018-11-12T05:05:40.331Z,13.14
2018-11-12T05:06:16.044Z,13.16
2018-11-12T05:06:51.091Z,13.14
2018-11-12T05:07:26.078Z,13.13
2018-11-12T05:08:01.168Z,13.18
2018-11-12T05:08:36.151Z,13.15
2018-11-12T05:09:11.712Z,13.18
2018-11-12T05:09:46.790Z,13.17
2018-11-12T05:10:22.903Z,13.17
2018-11-12T05:10:57.870Z,13.21
2018-11-12T05:11:32.820Z,13.21
2018-11-12T05:12:07.735Z,13.23
2018-11-12T05:12:43.501Z,13.29
2018-11-12T05:13:18.579Z,13.43
2018-11-12T05:13:53.589Z,13.44
2018-11-12T05:14:28.574Z,13.45
2018-11-12T05:15:04.074Z,13.41
2018-11-12T05:15:39.063Z,13.40
2018-11-12T05:16:14.558Z,13.45
2018-11-12T05:16:49.704Z,13.42
2018-11-12T05:17:24.842Z,13.42
2018-11-12T05:17:59.838Z,13.38
2018-11-12T05:18:34.783Z,13.53
2018-11-12T05:19:09.775Z,13.59
2018-11-12T05:19:44.899Z,13.62
2018-11-12T05:20:29.286Z,13.60
2018-11-12T05:21:04.555Z,13.57
2018-11-12T05:21:39.443Z,13.54
2018-11-12T05:22:14.944Z,13.53
2018-11-12T05:22:50.003Z,13.52
2018-11-12T05:23:25.060Z,13.47
2018-11-12T05:23:59.986Z,13.47
2018-11-12T05:24:34.887Z,13.46
2018-11-12T05:25:10.319Z,13.42
2018-11-12T05:25:45.388Z,13.44
2018-11-12T05:26:20.454Z,13.43
2018-11-12T05:26:55.829Z,13.45
2018-11-12T05:27:30.776Z,13.42
2018-11-12T05:28:06.246Z,13.43
2018-11-12T05:28:41.276Z,13.49
2018-11-12T05:29:16.528Z,13.47
2018-11-12T05:29:51.513Z,13.54
2018-11-12T05:30:27.606Z,13.51
2018-11-12T05:31:02.552Z,13.50
2018-11-12T05:31:37.450Z,13.24
2018-11-12T05:32:12.491Z,13.50
2018-11-12T05:32:47.921Z,13.59
2018-11-12T05:33:22.939Z,13.57
2018-11-12T05:33:57.833Z,13.60
2018-11-12T05:34:32.832Z,13.67
2018-11-12T05:35:07.759Z,13.62
2018-11-12T05:35:42.743Z,13.64
2018-11-12T05:36:17.821Z,13.61
2018-11-12T05:36:52.852Z,13.60
2018-11-12T05:37:27.839Z,13.62
2018-11-12T05:38:02.988Z,13.75
2018-11-12T05:38:38.046Z,13.71
2018-11-12T05:39:13.906Z,13.75
2018-11-12T05:39:49.454Z,13.74
2018-11-12T05:40:26.272Z,13.70
2018-11-12T05:41:01.175Z,13.67
2018-11-12T05:41:36.215Z,13.64
2018-11-12T05:42:11.360Z,13.70
2018-11-12T05:42:46.668Z,13.68
2018-11-12T05:43:21.740Z,13.78
2018-11-12T05:43:56.650Z,13.73
2018-11-12T05:44:31.582Z,13.71
2018-11-12T05:45:07.110Z,13.69
2018-11-12T05:45:42.342Z,13.65
2018-11-12T05:46:17.516Z,13.62
2018-11-12T05:46:52.636Z,13.60
2018-11-12T05:47:27.677Z,13.58
2018-11-12T05:48:02.656Z,13.58
2018-11-12T05:48:37.553Z,13.57
2018-11-12T05:49:12.888Z,13.55
2018-11-12T05:49:48.417Z,13.58
2018-11-12T05:50:25.710Z,13.56
2018-11-12T05:51:00.639Z,13.54
2018-11-12T05:51:35.740Z,13.52
2018-11-12T05:52:10.854Z,13.50
2018-11-12T05:52:46.920Z,13.48
2018-11-12T05:53:21.922Z,13.49
2018-11-12T05:53:56.894Z,13.48
2018-11-12T05:54:31.832Z,13.53
2018-11-12T05:55:09.026Z,13.65
2018-11-12T05:55:44.296Z,13.61
2018-11-12T05:56:19.592Z,13.60
2018-11-12T05:56:54.550Z,13.57
2018-11-12T05:57:29.471Z,13.55
2018-11-12T05:58:04.488Z,13.53
2018-11-12T05:58:39.462Z,13.55
2018-11-12T05:59:14.940Z,13.57
2018-11-12T05:59:50.173Z,13.59
2018-11-12T06:00:27.595Z,13.59
2018-11-12T06:01:02.548Z,13.76
2018-11-12T06:01:37.471Z,13.84
2018-11-12T06:02:12.510Z,13.76
2018-11-12T06:02:47.648Z,13.71
2018-11-12T06:03:22.632Z,13.72
2018-11-12T06:03:57.553Z,13.69
2018-11-12T06:04:32.441Z,13.67
2018-11-12T06:05:08.841Z,13.66
2018-11-12T06:05:44.307Z,13.64
2018-11-12T06:06:19.624Z,13.67
2018-11-12T06:06:54.556Z,13.64
2018-11-12T06:07:29.558Z,13.62
2018-11-12T06:08:05.792Z,13.63
2018-11-12T06:08:40.764Z,13.60
2018-11-12T06:09:16.348Z,13.59
2018-11-12T06:09:51.505Z,13.59
2018-11-12T06:10:28.057Z,13.55
2018-11-12T06:11:02.976Z,13.57
2018-11-12T06:11:38.206Z,13.58
2018-11-12T06:12:13.205Z,13.66
2018-11-12T06:12:48.515Z,13.62
2018-11-12T06:13:23.621Z,13.62
2018-11-12T06:13:58.593Z,13.62
2018-11-12T06:14:33.731Z,13.62
2018-11-12T06:15:09.620Z,13.61
2018-11-12T06:15:44.927Z,13.57
2018-11-12T06:16:20.152Z,13.70
2018-11-12T06:16:55.494Z,13.75
2018-11-12T06:17:30.447Z,13.81
2018-11-12T06:18:05.883Z,13.77
2018-11-12T06:18:41.145Z,13.81
2018-11-12T06:19:16.435Z,13.79
2018-11-12T06:19:51.456Z,13.77
2018-11-12T06:20:27.664Z,13.73
2018-11-12T06:21:02.618Z,13.70
2018-11-12T06:21:37.559Z,13.69
2018-11-12T06:22:12.754Z,13.65
2018-11-12T06:22:47.903Z,13.64
2018-11-12T06:23:23.231Z,13.65
2018-11-12T06:23:58.172Z,13.71
2018-11-12T06:24:33.118Z,13.72
2018-11-12T06:25:09.181Z,13.69
2018-11-12T06:25:44.761Z,13.85
2018-11-12T06:26:19.864Z,13.83
2018-11-12T06:26:54.837Z,13.80
2018-11-12T06:27:30.637Z,13.74
2018-11-12T06:28:06.001Z,13.75
2018-11-12T06:28:41.032Z,13.68
2018-11-12T06:29:16.322Z,13.77
2018-11-12T06:29:51.395Z,13.78
2018-11-12T06:30:27.892Z,13.75
2018-11-12T06:31:02.923Z,13.74
2018-11-12T06:31:38.583Z,13.74
2018-11-12T06:32:13.915Z,13.75
2018-11-12T06:32:49.412Z,13.81
2018-11-12T06:33:24.432Z,13.79
2018-11-12T06:33:59.457Z,13.77
2018-11-12T06:34:34.513Z,13.75
2018-11-12T06:35:10.633Z,13.81
2018-11-12T06:35:45.697Z,13.78
2018-11-12T06:36:20.779Z,13.80
2018-11-12T06:36:56.200Z,13.92
2018-11-12T06:37:31.252Z,13.91
2018-11-12T06:38:06.583Z,13.97
2018-11-12T06:38:41.724Z,13.92
2018-11-12T06:39:17.020Z,13.85
2018-11-12T06:39:52.325Z,13.83
2018-11-12T06:40:28.108Z,13.82
2018-11-12T06:41:03.052Z,13.80
2018-11-12T06:41:38.512Z,13.78
2018-11-12T06:42:13.793Z,13.84
2018-11-12T06:42:49.175Z,13.90
2018-11-12T06:43:24.414Z,13.94
2018-11-12T06:43:59.354Z,13.88
2018-11-12T06:44:34.406Z,13.87
2018-11-12T06:45:15.164Z,13.86
2018-11-12T06:45:51.147Z,13.82
2018-11-12T06:46:26.084Z,13.79
2018-11-12T06:47:00.999Z,13.85
2018-11-12T06:47:35.941Z,13.84
2018-11-12T06:48:10.937Z,13.87
2018-11-12T06:48:46.636Z,13.93
2018-11-12T06:49:22.165Z,13.88
2018-11-12T06:49:59.086Z,13.86
2018-11-12T06:50:34.876Z,13.86
2018-11-12T06:51:09.834Z,13.79
2018-11-12T06:51:46.096Z,13.87
2018-11-12T06:52:23.242Z,13.90
2018-11-12T06:52:58.958Z,13.87
2018-11-12T06:53:34.160Z,13.90
2018-11-12T06:54:09.174Z,13.89
2018-11-12T06:54:44.846Z,13.89
2018-11-12T06:55:20.779Z,13.88
2018-11-12T06:55:55.744Z,13.85
2018-11-12T06:56:30.657Z,14.01
2018-11-12T06:57:05.999Z,14.08
2018-11-12T06:57:41.635Z,14.01
2018-11-12T06:58:17.341Z,13.99
2018-11-12T06:58:52.459Z,14.04
2018-11-12T06:59:27.588Z,14.04
2018-11-12T07:00:02.765Z,14.03
2018-11-12T07:00:37.694Z,13.99
2018-11-12T07:01:13.026Z,14.00
2018-11-12T07:01:48.249Z,14.01
2018-11-12T07:02:23.750Z,13.94
2018-11-12T07:02:59.020Z,13.93
2018-11-12T07:03:33.964Z,13.96
2018-11-12T07:04:08.955Z,13.92
2018-11-12T07:04:44.802Z,13.94
2018-11-12T07:05:21.992Z,13.92
2018-11-12T07:05:56.947Z,13.98
2018-11-12T07:06:31.972Z,13.95
2018-11-12T07:07:07.410Z,13.97
2018-11-12T07:07:43.636Z,13.97
2018-11-12T07:08:18.867Z,13.96
2018-11-12T07:08:53.917Z,13.98
2018-11-12T07:09:28.936Z,13.96
2018-11-12T07:10:05.223Z,13.95
2018-11-12T07:10:40.226Z,13.97
2018-11-12T07:11:15.610Z,13.98
2018-11-12T07:11:52.022Z,14.00
2018-11-12T07:12:26.912Z,14.00
2018-11-12T07:13:01.911Z,14.01
2018-11-12T07:13:36.995Z,14.02
2018-11-12T07:14:12.234Z,14.08
2018-11-12T07:14:47.792Z,14.07
2018-11-12T07:15:24.056Z,14.22
2018-11-12T07:15:58.983Z,14.21
2018-11-12T07:16:33.966Z,14.21
2018-11-12T07:17:08.961Z,14.19
2018-11-12T07:17:44.354Z,14.15
2018-11-12T07:18:19.775Z,14.16
2018-11-12T07:18:55.104Z,14.17
2018-11-12T07:19:30.315Z,14.15
2018-11-12T07:20:07.425Z,14.20
2018-11-12T07:20:42.605Z,14.20
2018-11-12T07:21:18.496Z,14.21
2018-11-12T07:21:53.676Z,14.25
2018-11-12T07:22:28.690Z,14.26
2018-11-12T07:23:03.638Z,14.25
2018-11-12T07:23:38.569Z,14.30
2018-11-12T07:24:13.787Z,14.25
2018-11-12T07:24:49.101Z,14.24
2018-11-12T07:25:27.096Z,14.28
2018-11-12T07:26:02.272Z,14.27
2018-11-12T07:26:37.188Z,14.28
2018-11-12T07:27:12.205Z,14.43
2018-11-12T07:27:47.709Z,14.44
2018-11-12T07:28:23.472Z,14.35
2018-11-12T07:28:59.067Z,14.34
2018-11-12T07:29:33.960Z,14.31
2018-11-12T07:30:18.727Z,14.28
2018-11-12T07:30:54.183Z,14.25
2018-11-12T07:31:29.807Z,14.19
2018-11-12T07:32:05.049Z,14.23
2018-11-12T07:32:40.004Z,14.33
2018-11-12T07:33:15.684Z,14.49
2018-11-12T07:33:50.969Z,14.44
2018-11-12T07:34:25.932Z,14.40